KPSP/PSP METAR and TAF weather

Enter ICAO airport designator
Station Type Date Time Source
KPSP METAR 2019/10/23 19:53 UTC NOAA

KPSP 231953Z 03003KT 10SM CLR 37/M04 A2988 RMK AO2 SLP115 T03721039


Station Type Date Time Source
KPSP Decoded METAR 2019/10/23 19:53 UTC NOAA

PALM SPRINGS REGIONAL AIRPORT , CA, United States (KPSP) 33-50N 116-30W 135M
Oct 23, 2019 - 03:53 PM EDT / 2019.10.23 1953 UTC
Wind: from the NNE (030 degrees) at 3 MPH (3 KT):0
Visibility: 10 mile(s):0
Sky conditions: clear
Temperature: 99.0 F (37.2 C)
Dew Point: 25.0 F (-3.9 C)
Relative Humidity: 7%
Pressure (altimeter): 29.88 in. Hg (1011 hPa)
ob: KPSP 231953Z 03003KT 10SM CLR 37/M04 A2988 RMK AO2 SLP115 T03721039
cycle: 20

Station Type Date Time Source
KPSP TAF 2019/10/23 18:36 UTC NOAA

TAF KPSP 231735Z 2318/2418 VRB05KT P6SM SKC
FM241100 33011G20KT P6SM SKC WS015/01030KT

Example: see airport list